Time;durP1;ratioP1;P1;durP2;ratioP2;P2;SDS_P1;SDS_P2;PMS_P1;PMS_P2;Temp;Humidity;BMP_temperature;BMP_pressure;BME280_temperature;BME280_humidity;BME280_pressure;Samples;Min_cycle;Max_cycle;Signal;HPM_P1;HPM_P2
2023/11/25 00:00:53;;;;;;;9.52;2.33;;;6.30;99.90;;;;;;5054553;28;20100;-86
2023/11/25 00:03:19;;;;;;;9.68;1.63;;;6.70;99.90;;;;;;5052252;28;20045;-87
2023/11/25 00:05:44;;;;;;;10.00;1.65;;;6.30;99.90;;;;;;5052653;28;20074;-84
2023/11/25 00:08:10;;;;;;;8.93;2.15;;;6.30;99.90;;;;;;5053888;28;20498;-85
2023/11/25 00:10:36;;;;;;;15.23;2.60;;;6.30;99.90;;;;;;5033362;28;20100;-84
2023/11/25 00:13:07;;;;;;;10.15;2.90;;;6.30;99.90;;;;;;5047964;28;20029;-93
2023/11/25 00:15:33;;;;;;;7.22;1.88;;;6.40;99.90;;;;;;5057139;28;20459;-90
2023/11/25 00:17:59;;;;;;;8.18;1.63;;;6.30;99.90;;;;;;5053378;28;20469;-91
2023/11/25 00:20:25;;;;;;;15.60;3.90;;;7.40;99.90;;;;;;5070371;28;20024;-90
2023/11/25 00:22:52;;;;;;;11.82;2.17;;;6.30;99.90;;;;;;5073858;28;20505;-91
2023/11/25 00:25:18;;;;;;;16.73;3.10;;;6.40;99.90;;;;;;5073838;28;20027;-92
2023/11/25 00:27:46;;;;;;;12.40;2.42;;;6.60;99.90;;;;;;5055398;28;20385;-91
2023/11/25 00:30:14;;;;;;;11.73;1.92;;;6.40;99.90;;;;;;5054033;28;20033;-92
2023/11/25 00:32:43;;;;;;;9.48;1.40;;;6.40;99.90;;;;;;5052829;28;20028;-91
2023/11/25 00:35:14;;;;;;;12.85;3.28;;;5.60;99.90;;;;;;5072331;28;20060;-91
2023/11/25 00:37:43;;;;;;;14.90;1.73;;;7.20;99.90;;;;;;5055975;28;20028;-92
2023/11/25 00:40:16;;;;;;;11.40;1.60;;;6.20;99.90;;;;;;5053204;28;20032;-92
2023/11/25 00:42:51;;;;;;;10.20;1.70;;;6.20;99.90;;;;;;5053613;28;20028;-92
2023/11/25 00:45:16;;;;;;;11.90;1.90;;;6.40;99.90;;;;;;5053614;28;20029;-91
2023/11/25 00:47:47;;;;;;;12.88;1.90;;;7.00;99.90;;;;;;5060226;28;20021;-92
2023/11/25 00:50:16;;;;;;;15.32;2.78;;;7.20;99.90;;;;;;5055710;28;20025;-91
2023/11/25 00:52:52;;;;;;;7.47;1.73;;;6.60;99.90;;;;;;5053349;28;20029;-92
2023/11/25 00:55:24;;;;;;;9.23;2.33;;;6.70;99.90;;;;;;5053733;28;20029;-91
2023/11/25 00:57:58;;;;;;;12.32;2.10;;;6.30;99.90;;;;;;5053496;28;20029;-91
2023/11/25 01:00:26;;;;;;;10.05;1.95;;;6.80;99.90;;;;;;5053463;28;20070;-91
2023/11/25 01:02:52;;;;;;;21.90;3.30;;;6.40;99.90;;;;;;5054890;28;20021;-90
2023/11/25 01:05:18;;;;;;;20.30;2.72;;;6.30;99.90;;;;;;5054520;28;20068;-90
2023/11/25 01:07:44;;;;;;;18.52;3.10;;;6.50;99.90;;;;;;5052878;28;20377;-91
2023/11/25 01:10:10;;;;;;;15.95;2.90;;;6.80;99.90;;;;;;5047858;28;20037;-91
2023/11/25 01:12:36;;;;;;;14.70;3.10;;;6.40;99.90;;;;;;5053390;28;20025;-90
2023/11/25 01:15:03;;;;;;;17.92;2.72;;;6.40;99.90;;;;;;5053052;28;20033;-91
2023/11/25 01:17:30;;;;;;;11.48;2.50;;;7.80;99.90;;;;;;5053419;28;20104;-91
2023/11/25 01:19:56;;;;;;;18.50;3.20;;;7.70;99.90;;;;;;5052751;28;20025;-91
2023/11/25 01:22:31;;;;;;;15.90;3.22;;;6.40;99.90;;;;;;5052886;28;20040;-91
2023/11/25 01:24:59;;;;;;;16.77;2.65;;;7.40;99.90;;;;;;5052722;28;20096;-90
2023/11/25 01:27:25;;;;;;;9.15;2.65;;;6.50;99.90;;;;;;5057532;28;20021;-90
2023/11/25 01:29:51;;;;;;;17.60;2.65;;;6.50;99.90;;;;;;5072476;28;20044;-91
2023/11/25 01:32:26;;;;;;;16.13;2.95;;;6.30;99.90;;;;;;5056642;28;20027;-90
2023/11/25 01:34:58;;;;;;;13.18;2.38;;;7.30;99.90;;;;;;5055837;28;20413;-92
2023/11/25 01:37:29;;;;;;;13.50;2.80;;;5.80;99.90;;;;;;5053134;28;20021;-90
2023/11/25 01:39:58;;;;;;;11.98;2.72;;;6.50;99.90;;;;;;5051613;28;20022;-91
2023/11/25 01:42:26;;;;;;;15.32;2.47;;;7.00;99.90;;;;;;5033733;28;20112;-90
2023/11/25 01:45:17;;;;;;;13.27;2.95;;;7.00;99.90;;;;;;5037310;28;20022;-90
2023/11/25 01:47:43;;;;;;;14.65;3.33;;;6.40;99.90;;;;;;5057815;28;20171;-91
2023/11/25 01:50:10;;;;;;;12.15;2.70;;;6.30;99.90;;;;;;5043855;28;20129;-90
2023/11/25 01:52:37;;;;;;;12.80;2.28;;;7.10;99.90;;;;;;5051465;28;20024;-91
2023/11/25 01:55:09;;;;;;;13.88;2.22;;;6.20;99.90;;;;;;5057255;28;20380;-91
2023/11/25 01:57:35;;;;;;;12.60;2.05;;;5.30;99.90;;;;;;5055589;28;20021;-91
2023/11/25 02:00:07;;;;;;;10.00;2.38;;;6.70;99.90;;;;;;5060026;28;20117;-90
2023/11/25 02:02:37;;;;;;;17.25;2.17;;;5.80;99.90;;;;;;5070770;28;20036;-91
2023/11/25 02:05:03;;;;;;;8.37;1.63;;;6.90;99.90;;;;;;5037665;28;20022;-91
2023/11/25 02:07:29;;;;;;;8.07;1.63;;;5.90;99.90;;;;;;5037780;28;20029;-89
2023/11/25 02:09:55;;;;;;;12.50;2.50;;;6.50;99.90;;;;;;5036746;28;20568;-91
2023/11/25 02:12:34;;;;;;;14.25;2.20;;;5.70;99.90;;;;;;5037457;28;20493;-91
2023/11/25 02:15:00;;;;;;;8.50;1.70;;;5.40;99.90;;;;;;5049547;28;20025;-92
2023/11/25 02:17:32;;;;;;;12.98;2.72;;;5.70;99.90;;;;;;5057203;28;20010;-91
2023/11/25 02:20:00;;;;;;;10.40;2.60;;;6.80;99.90;;;;;;5041501;28;20164;-92
2023/11/25 02:22:26;;;;;;;15.18;2.22;;;6.30;99.90;;;;;;5063236;28;20039;-92
2023/11/25 02:24:52;;;;;;;12.65;2.97;;;6.30;99.90;;;;;;5079546;28;20072;-91
2023/11/25 02:27:17;;;;;;;15.10;2.40;;;6.50;99.90;;;;;;5077463;28;20029;-91
2023/11/25 02:29:43;;;;;;;16.13;2.58;;;6.30;99.90;;;;;;5056921;28;20033;-92
2023/11/25 02:32:09;;;;;;;14.40;2.58;;;6.60;99.90;;;;;;5056407;28;20025;-91
2023/11/25 02:34:35;;;;;;;17.92;2.92;;;7.00;99.90;;;;;;5056180;28;20048;-92
2023/11/25 02:37:00;;;;;;;24.38;3.42;;;5.80;99.90;;;;;;5056278;28;20111;-91
2023/11/25 02:39:27;;;;;;;14.20;2.33;;;6.90;99.90;;;;;;5063485;28;20028;-93
2023/11/25 02:41:54;;;;;;;17.63;1.90;;;5.90;99.90;;;;;;5058180;28;20021;-93
2023/11/25 02:44:21;;;;;;;15.18;2.22;;;7.30;99.90;;;;;;5056438;28;20074;-92
2023/11/25 02:46:49;;;;;;;17.15;3.33;;;7.00;99.90;;;;;;5054987;28;20032;-91
2023/11/25 02:49:16;;;;;;;18.42;3.38;;;6.00;99.90;;;;;;5055722;28;20102;-91
2023/11/25 02:52:04;;;;;;;18.77;3.42;;;6.60;99.90;;;;;;5055812;28;20021;-91
2023/11/25 02:54:33;;;;;;;15.68;3.15;;;5.80;99.90;;;;;;5056004;28;20547;-91
2023/11/25 02:57:01;;;;;;;15.57;2.83;;;6.30;99.90;;;;;;5055697;28;20040;-92
2023/11/25 02:59:30;;;;;;;12.43;2.40;;;7.10;99.90;;;;;;5054966;28;20021;-90
2023/11/25 03:01:58;;;;;;;15.25;2.53;;;6.80;99.90;;;;;;5055735;28;20366;-91
2023/11/25 03:04:36;;;;;;;20.75;3.28;;;6.20;99.90;;;;;;5055708;28;20025;-91
2023/11/25 03:07:04;;;;;;;19.13;3.30;;;6.20;99.90;;;;;;5055845;28;20067;-92
2023/11/25 03:09:30;;;;;;;17.70;2.28;;;6.10;99.90;;;;;;5057570;28;20029;-91
2023/11/25 03:11:58;;;;;;;17.25;3.42;;;6.10;99.90;;;;;;5057999;28;20086;-91
2023/11/25 03:14:24;;;;;;;17.88;3.72;;;6.20;99.90;;;;;;5061455;28;20094;-90
2023/11/25 03:16:54;;;;;;;24.25;2.80;;;7.20;99.90;;;;;;5076916;28;20001;-91
2023/11/25 03:19:20;;;;;;;18.83;3.95;;;6.90;99.90;;;;;;5070237;28;20032;-91
2023/11/25 03:21:45;;;;;;;15.75;2.55;;;5.90;99.90;;;;;;5063444;28;20025;-90
2023/11/25 03:24:11;;;;;;;15.85;2.88;;;7.10;99.90;;;;;;5056578;28;20025;-91
2023/11/25 03:26:37;;;;;;;13.38;2.60;;;6.10;99.90;;;;;;5055103;28;20028;-92
2023/11/25 03:29:05;;;;;;;15.77;3.15;;;6.30;99.90;;;;;;5055727;28;20029;-92
2023/11/25 03:31:40;;;;;;;12.68;2.78;;;6.40;99.90;;;;;;5055841;28;20033;-92
2023/11/25 03:34:05;;;;;;;17.08;3.38;;;6.20;99.90;;;;;;5034935;28;20045;-91
2023/11/25 03:36:38;;;;;;;19.60;3.60;;;6.10;99.90;;;;;;5036669;28;20025;-92
2023/11/25 03:39:05;;;;;;;18.45;2.92;;;7.10;99.90;;;;;;5035797;28;20078;-92
2023/11/25 03:41:32;;;;;;;16.23;3.05;;;6.60;99.90;;;;;;5034600;28;20029;-92
2023/11/25 03:44:02;;;;;;;19.77;2.50;;;7.00;99.90;;;;;;5034853;28;20176;-92
2023/11/25 03:46:28;;;;;;;17.13;3.47;;;6.20;99.90;;;;;;5035379;28;20030;-92
2023/11/25 03:48:54;;;;;;;16.17;2.70;;;5.20;99.90;;;;;;5046594;28;20144;-91
2023/11/25 03:51:20;;;;;;;19.23;3.55;;;6.80;99.90;;;;;;5054941;28;20025;-92
2023/11/25 03:53:45;;;;;;;10.68;2.92;;;6.20;99.90;;;;;;5066301;28;20029;-91
2023/11/25 03:56:13;;;;;;;9.32;3.28;;;7.80;99.90;;;;;;5065171;28;20084;-91
2023/11/25 03:58:39;;;;;;;11.43;3.55;;;6.30;99.90;;;;;;5055101;28;20496;-91
2023/11/25 04:01:12;;;;;;;15.88;2.92;;;7.10;99.90;;;;;;5055309;28;20036;-90
2023/11/25 04:03:47;;;;;;;19.80;3.88;;;5.40;99.90;;;;;;5058036;28;20032;-92
2023/11/25 04:06:15;;;;;;;16.45;2.80;;;6.90;99.90;;;;;;5057188;28;20025;-90
2023/11/25 04:08:46;;;;;;;20.38;3.38;;;6.50;99.90;;;;;;5057073;28;20021;-90
2023/11/25 04:11:16;;;;;;;17.40;3.60;;;6.40;99.90;;;;;;5057521;28;20021;-90
2023/11/25 04:13:43;;;;;;;14.80;2.10;;;5.20;99.90;;;;;;5070867;28;20017;-91
2023/11/25 04:16:08;;;;;;;20.67;2.83;;;6.20;99.90;;;;;;5064016;28;20103;-90
2023/11/25 04:18:34;;;;;;;18.45;2.38;;;7.50;99.90;;;;;;5056661;28;20063;-90
2023/11/25 04:21:06;;;;;;;18.30;2.40;;;6.80;99.90;;;;;;5056825;28;20080;-91
2023/11/25 04:23:34;;;;;;;20.20;2.67;;;6.10;99.90;;;;;;5055662;28;20040;-91
2023/11/25 04:26:02;;;;;;;16.83;2.20;;;7.60;99.90;;;;;;5055128;28;20496;-91
2023/11/25 04:28:36;;;;;;;25.05;4.47;;;7.30;99.90;;;;;;5055105;28;20496;-91
2023/11/25 04:31:07;;;;;;;16.33;2.30;;;7.20;99.90;;;;;;5055360;28;20025;-92
2023/11/25 04:33:34;;;;;;;14.60;2.70;;;7.00;99.90;;;;;;5055445;28;20037;-92
2023/11/25 04:36:00;;;;;;;19.15;2.38;;;6.40;99.90;;;;;;5058926;28;20041;-89
2023/11/25 04:38:26;;;;;;;17.70;3.00;;;7.10;99.90;;;;;;5058259;28;20106;-91
2023/11/25 04:40:51;;;;;;;23.60;3.00;;;6.10;99.90;;;;;;5058158;28;20029;-91
2023/11/25 04:43:17;;;;;;;7.75;1.70;;;7.40;99.90;;;;;;5057232;28;20028;-89
2023/11/25 04:45:43;;;;;;;13.18;2.38;;;7.10;99.90;;;;;;5058748;28;20377;-91
2023/11/25 04:48:08;;;;;;;9.32;2.33;;;6.50;99.90;;;;;;5058807;28;20029;-92
2023/11/25 04:50:34;;;;;;;6.18;1.73;;;6.10;99.90;;;;;;5057268;28;20025;-92
2023/11/25 04:53:00;;;;;;;7.15;1.70;;;7.40;99.90;;;;;;5055736;28;20024;-91
2023/11/25 04:55:27;;;;;;;5.50;1.60;;;6.50;99.90;;;;;;5054311;28;20074;-91
2023/11/25 04:57:54;;;;;;;8.90;1.80;;;6.50;99.90;;;;;;5054395;28;20380;-93
2023/11/25 05:00:21;;;;;;;8.18;2.10;;;7.10;99.90;;;;;;5057731;28;20035;-91
2023/11/25 05:02:47;;;;;;;11.90;1.48;;;6.40;99.90;;;;;;5058862;28;20043;-91
2023/11/25 05:05:13;;;;;;;8.00;1.15;;;7.40;99.90;;;;;;5057750;28;20052;-86
2023/11/25 05:07:38;;;;;;;4.22;0.80;;;6.40;99.90;;;;;;5067049;28;20020;-91
2023/11/25 05:10:06;;;;;;;5.68;1.42;;;7.40;99.90;;;;;;5075184;28;20128;-92
2023/11/25 05:12:32;;;;;;;3.50;0.65;;;6.40;99.90;;;;;;5062664;28;20112;-92
2023/11/25 05:14:58;;;;;;;3.88;0.77;;;5.60;99.90;;;;;;5054185;28;20022;-91
2023/11/25 05:17:25;;;;;;;7.85;0.70;;;7.30;99.90;;;;;;5053770;28;20032;-91
2023/11/25 05:19:50;;;;;;;5.43;0.60;;;6.30;99.90;;;;;;5056887;28;20025;-91
2023/11/25 05:22:16;;;;;;;1.23;0.43;;;6.20;99.90;;;;;;5058083;28;20094;-92
2023/11/25 05:24:42;;;;;;;7.93;0.80;;;7.10;99.90;;;;;;5057834;28;20471;-92
2023/11/25 05:27:07;;;;;;;1.70;0.40;;;7.00;99.90;;;;;;5058527;28;20438;-92
2023/11/25 05:29:33;;;;;;;0.82;0.50;;;6.20;99.90;;;;;;5061531;28;20037;-92
2023/11/25 05:31:59;;;;;;;5.07;0.77;;;6.10;99.90;;;;;;5060031;28;20025;-93
2023/11/25 05:34:25;;;;;;;2.08;0.40;;;7.10;99.90;;;;;;5063092;28;20049;-92
2023/11/25 05:36:50;;;;;;;4.75;0.80;;;7.20;99.90;;;;;;5055741;28;20017;-91
2023/11/25 05:39:20;;;;;;;3.53;1.10;;;6.00;99.90;;;;;;5058235;28;20021;-91
2023/11/25 05:41:46;;;;;;;2.83;0.60;;;6.80;99.90;;;;;;5041501;28;20105;-93
2023/11/25 05:44:12;;;;;;;11.18;1.30;;;6.30;99.90;;;;;;5037295;28;20072;-91
2023/11/25 05:46:46;;;;;;;9.70;1.13;;;5.90;99.90;;;;;;5042918;28;20022;-91
2023/11/25 05:49:12;;;;;;;4.28;1.05;;;5.80;99.90;;;;;;5044577;28;20041;-91
2023/11/25 05:51:39;;;;;;;6.07;1.13;;;7.00;99.90;;;;;;5036942;28;20026;-92
2023/11/25 05:54:13;;;;;;;8.45;1.20;;;6.50;99.90;;;;;;5036024;28;20041;-92
2023/11/25 05:56:42;;;;;;;6.90;1.15;;;6.50;99.90;;;;;;5036081;28;20489;-92
2023/11/25 05:59:14;;;;;;;7.22;1.23;;;6.60;99.90;;;;;;5037040;28;20026;-92
2023/11/25 06:01:48;;;;;;;5.47;0.80;;;6.90;99.90;;;;;;5046498;28;20006;-93
2023/11/25 06:04:16;;;;;;;5.78;0.85;;;5.90;99.90;;;;;;5048120;28;20469;-94
2023/11/25 06:06:44;;;;;;;7.95;1.35;;;6.10;99.90;;;;;;5039342;28;20474;-92
2023/11/25 06:09:11;;;;;;;3.60;1.05;;;6.90;99.90;;;;;;5042677;28;20045;-92
2023/11/25 06:11:38;;;;;;;7.35;1.55;;;6.90;99.90;;;;;;5053059;28;20033;-92
2023/11/25 06:14:04;;;;;;;3.47;0.50;;;7.10;99.90;;;;;;5053238;28;20121;-92
2023/11/25 06:16:30;;;;;;;2.67;0.88;;;6.20;99.90;;;;;;5043986;28;20026;-92
2023/11/25 06:18:57;;;;;;;9.27;0.90;;;6.90;99.90;;;;;;5053552;28;20021;-93
2023/11/25 06:21:26;;;;;;;8.57;1.02;;;7.10;99.90;;;;;;5048265;28;20039;-93
2023/11/25 06:24:03;;;;;;;4.25;1.05;;;7.20;99.90;;;;;;5038818;28;20387;-93
2023/11/25 06:26:29;;;;;;;4.88;0.90;;;6.10;99.90;;;;;;5038104;28;20113;-92
2023/11/25 06:28:55;;;;;;;10.45;1.10;;;7.10;99.90;;;;;;5035978;28;20119;-93
2023/11/25 06:31:23;;;;;;;7.97;0.85;;;7.70;99.90;;;;;;5035186;28;20029;-93
2023/11/25 06:33:55;;;;;;;7.15;1.00;;;7.30;99.90;;;;;;5036144;28;20080;-93
2023/11/25 06:36:21;;;;;;;5.43;1.92;;;7.40;99.90;;;;;;5036340;28;20057;-94
2023/11/25 06:38:47;;;;;;;5.13;1.38;;;7.30;99.90;;;;;;5035672;28;20064;-91
2023/11/25 06:41:23;;;;;;;5.35;0.90;;;7.20;99.90;;;;;;5036283;28;20426;-92
2023/11/25 06:43:49;;;;;;;6.45;1.05;;;6.70;99.90;;;;;;5040093;28;20086;-91
2023/11/25 06:46:15;;;;;;;5.53;1.08;;;7.30;99.90;;;;;;5040490;28;20032;-92
2023/11/25 06:48:44;;;;;;;6.65;1.63;;;6.80;99.90;;;;;;5038955;28;20033;-92
2023/11/25 06:51:13;;;;;;;4.97;1.48;;;7.10;99.90;;;;;;5035410;28;20033;-92
2023/11/25 06:53:41;;;;;;;8.30;1.50;;;7.40;99.90;;;;;;5035695;28;20018;-91
2023/11/25 06:56:16;;;;;;;5.45;1.10;;;7.50;99.90;;;;;;5058107;28;20013;-91
2023/11/25 06:58:42;;;;;;;6.47;0.90;;;6.30;99.90;;;;;;5039405;28;20029;-90
2023/11/25 07:01:07;;;;;;;13.05;1.60;;;7.40;99.90;;;;;;5035879;28;20032;-91
2023/11/25 07:03:33;;;;;;;9.15;1.80;;;7.40;99.90;;;;;;5035395;28;20024;-91
2023/11/25 07:05:59;;;;;;;12.57;2.33;;;6.70;99.90;;;;;;5035212;28;20061;-92
2023/11/25 07:08:26;;;;;;;12.20;2.15;;;7.50;99.90;;;;;;5037205;28;20033;-91
2023/11/25 07:11:01;;;;;;;14.82;2.05;;;7.70;99.90;;;;;;5028357;28;20034;-92
2023/11/25 07:13:28;;;;;;;9.70;2.58;;;7.30;99.90;;;;;;5015384;28;20026;-92
2023/11/25 07:15:53;;;;;;;10.95;2.38;;;7.40;99.90;;;;;;5015774;28;20029;-91
2023/11/25 07:18:19;;;;;;;9.20;1.23;;;7.50;99.90;;;;;;5016151;28;20037;-92
2023/11/25 07:20:46;;;;;;;11.82;1.52;;;7.50;99.90;;;;;;5015959;28;20041;-92
2023/11/25 07:23:13;;;;;;;9.80;1.40;;;6.50;99.90;;;;;;5031095;28;20079;-91
2023/11/25 07:25:44;;;;;;;9.48;2.08;;;7.40;99.90;;;;;;5036266;28;20022;-92
2023/11/25 07:28:11;;;;;;;12.57;2.25;;;6.60;99.90;;;;;;5034496;28;20029;-91
2023/11/25 07:30:42;;;;;;;7.05;1.15;;;7.40;99.90;;;;;;5036160;28;20038;-92
2023/11/25 07:33:08;;;;;;;4.10;0.90;;;7.30;99.90;;;;;;5050214;28;20022;-92
2023/11/25 07:35:46;;;;;;;5.13;1.00;;;7.60;99.90;;;;;;5114929;22;20053;-91
2023/11/25 07:38:25;;;;;;;7.00;0.70;;;6.70;99.90;;;;;;5057606;28;20033;-90
2023/11/25 07:40:51;;;;;;;7.28;1.40;;;7.60;99.90;;;;;;5068499;28;20021;-90
2023/11/25 07:43:16;;;;;;;3.58;0.95;;;6.60;99.90;;;;;;5059577;28;20495;-91
2023/11/25 07:45:43;;;;;;;5.72;1.23;;;5.90;99.90;;;;;;5054531;28;20033;-91
2023/11/25 07:48:10;;;;;;;6.78;1.63;;;6.60;99.90;;;;;;5059452;28;20029;-90
2023/11/25 07:50:37;;;;;;;9.73;0.90;;;7.70;99.90;;;;;;5055052;28;20048;-91
2023/11/25 07:53:05;;;;;;;9.65;2.00;;;6.70;99.90;;;;;;5065619;28;20081;-91
2023/11/25 07:55:31;;;;;;;4.53;1.10;;;7.60;99.90;;;;;;5054453;28;20047;-91
2023/11/25 07:58:03;;;;;;;15.55;2.92;;;7.20;99.90;;;;;;5055783;28;20057;-91
2023/11/25 08:00:44;;;;;;;10.90;1.65;;;7.00;99.90;;;;;;5055793;28;20029;-94
2023/11/25 08:03:19;;;;;;;9.75;1.63;;;5.90;99.90;;;;;;5063049;23;20457;-92
2023/11/25 08:05:45;;;;;;;7.15;1.58;;;6.60;99.90;;;;;;5041968;28;20017;-94
2023/11/25 08:08:11;;;;;;;5.32;1.40;;;7.50;99.90;;;;;;5039843;28;20037;-92
2023/11/25 08:10:39;;;;;;;7.07;1.55;;;7.90;99.90;;;;;;5036061;28;20025;-92
2023/11/25 08:13:05;;;;;;;8.75;1.38;;;6.70;99.90;;;;;;5032245;28;20501;-90
2023/11/25 08:15:31;;;;;;;5.03;2.15;;;7.60;99.90;;;;;;5022353;28;20038;-92
2023/11/25 08:17:58;;;;;;;4.90;0.95;;;7.10;99.90;;;;;;5018020;28;20478;-92
2023/11/25 08:20:27;;;;;;;7.65;1.35;;;6.70;99.90;;;;;;5020069;28;20026;-94
2023/11/25 08:22:53;;;;;;;5.07;1.00;;;6.70;99.90;;;;;;5015196;28;20033;-92
2023/11/25 08:25:19;;;;;;;6.40;1.48;;;7.40;99.90;;;;;;5015890;28;20105;-93
2023/11/25 08:27:44;;;;;;;3.22;0.90;;;7.40;99.90;;;;;;5017672;28;20030;-89
2023/11/25 08:30:11;;;;;;;9.52;1.13;;;7.10;99.90;;;;;;5014700;28;20087;-90
2023/11/25 08:32:41;;;;;;;2.85;0.70;;;6.70;99.90;;;;;;5018582;28;20115;-92
2023/11/25 08:35:11;;;;;;;1.73;0.63;;;6.60;99.90;;;;;;5017669;28;20045;-88
2023/11/25 08:37:38;;;;;;;4.72;1.10;;;6.70;99.90;;;;;;5027429;28;20079;-88
2023/11/25 08:40:17;;;;;;;9.02;1.35;;;6.60;99.90;;;;;;5016466;28;20030;-87
2023/11/25 08:42:51;;;;;;;4.38;0.95;;;7.80;99.90;;;;;;5025923;28;20026;-91
2023/11/25 08:45:17;;;;;;;4.78;0.80;;;6.60;99.90;;;;;;5016410;28;20046;-86
2023/11/25 08:47:43;;;;;;;4.88;1.10;;;7.20;99.90;;;;;;5022552;28;20494;-87
2023/11/25 08:50:10;;;;;;;12.65;1.05;;;7.10;99.90;;;;;;5034763;28;20436;-84
2023/11/25 08:52:38;;;;;;;5.90;0.80;;;6.50;99.90;;;;;;5031304;28;20026;-84
2023/11/25 08:55:10;;;;;;;6.32;0.95;;;6.50;99.90;;;;;;5034980;28;20121;-88
2023/11/25 08:57:36;;;;;;;3.70;0.93;;;6.60;99.90;;;;;;5027958;28;20096;-88
2023/11/25 09:00:14;;;;;;;6.15;1.63;;;6.60;99.90;;;;;;5031285;28;20505;-86
2023/11/25 09:02:43;;;;;;;6.93;0.90;;;6.60;99.90;;;;;;5034605;28;20045;-91
2023/11/25 09:05:10;;;;;;;7.32;1.20;;;6.70;99.90;;;;;;5017517;28;20116;-89
2023/11/25 09:07:37;;;;;;;6.45;1.00;;;6.60;99.90;;;;;;5037306;28;20426;-87
2023/11/25 09:10:05;;;;;;;9.70;1.17;;;7.80;99.90;;;;;;5056675;28;20124;-86
2023/11/25 09:12:31;;;;;;;7.72;1.35;;;6.70;99.90;;;;;;5057240;28;20017;-87
2023/11/25 09:14:57;;;;;;;4.32;1.00;;;6.70;99.90;;;;;;5046362;28;20112;-87
2023/11/25 09:17:27;;;;;;;10.00;1.77;;;7.40;99.90;;;;;;5040719;28;20056;-93
2023/11/25 09:19:52;;;;;;;10.77;1.40;;;7.00;99.90;;;;;;5035384;28;20503;-88
2023/11/25 09:22:18;;;;;;;2.20;0.70;;;6.70;99.90;;;;;;5037852;28;20040;-89
2023/11/25 09:24:44;;;;;;;9.15;1.38;;;6.60;99.90;;;;;;5037787;28;20072;-92
2023/11/25 09:27:13;;;;;;;11.00;1.33;;;7.60;99.90;;;;;;5038118;28;20040;-90
2023/11/25 09:29:41;;;;;;;10.65;1.10;;;6.70;99.90;;;;;;5037440;28;20029;-87
2023/11/25 09:32:07;;;;;;;5.15;1.17;;;6.60;99.90;;;;;;5031278;28;20157;-91
2023/11/25 09:34:35;;;;;;;6.28;1.17;;;7.80;99.90;;;;;;5028440;28;20026;-94
2023/11/25 09:37:07;;;;;;;6.47;1.05;;;7.70;99.90;;;;;;5045192;28;20021;-93
2023/11/25 09:39:33;;;;;;;7.63;1.85;;;7.50;99.90;;;;;;5053471;28;20085;-94
2023/11/25 09:41:59;;;;;;;12.18;2.65;;;7.70;99.90;;;;;;5038189;28;20037;-96
2023/11/25 09:44:26;;;;;;;6.05;1.10;;;6.70;99.90;;;;;;5022459;28;20053;-94
2023/11/25 09:46:51;;;;;;;8.52;3.10;;;7.90;99.90;;;;;;5018433;28;20029;-94
2023/11/25 09:49:17;;;;;;;8.70;1.98;;;8.00;99.90;;;;;;5018363;28;20486;-93
2023/11/25 09:51:46;;;;;;;12.13;1.85;;;7.00;99.90;;;;;;5018704;28;20450;-92
2023/11/25 09:54:18;;;;;;;11.52;1.92;;;7.90;99.90;;;;;;5018221;28;20026;-94
2023/11/25 09:56:50;;;;;;;9.98;1.92;;;7.30;99.90;;;;;;5018087;28;20041;-93
2023/11/25 09:59:16;;;;;;;12.45;2.42;;;7.10;99.90;;;;;;5019184;28;20037;-92
2023/11/25 10:01:42;;;;;;;13.15;2.80;;;7.80;99.90;;;;;;5036786;28;20014;-92
2023/11/25 10:04:11;;;;;;;10.82;2.28;;;8.20;99.90;;;;;;5058623;28;20113;-93
2023/11/25 10:06:37;;;;;;;12.57;2.15;;;7.10;99.90;;;;;;5049592;28;20006;-93
2023/11/25 10:09:05;;;;;;;13.88;3.90;;;8.10;99.90;;;;;;5036211;28;20026;-93
2023/11/25 10:11:34;;;;;;;12.90;2.70;;;8.10;99.90;;;;;;5040442;28;20034;-94
2023/11/25 10:14:02;;;;;;;10.85;2.53;;;8.20;99.90;;;;;;5040166;28;20097;-94
2023/11/25 10:16:28;;;;;;;8.15;1.92;;;8.30;99.90;;;;;;5012527;28;20390;-94
2023/11/25 10:18:56;;;;;;;17.42;3.58;;;8.10;99.90;;;;;;5027710;28;20053;-94
2023/11/25 10:21:22;;;;;;;10.30;2.42;;;8.20;99.90;;;;;;5020410;28;20098;-94
2023/11/25 10:23:51;;;;;;;6.20;1.52;;;7.20;99.90;;;;;;5018716;28;20030;-94
2023/11/25 10:26:18;;;;;;;8.35;2.97;;;8.20;99.90;;;;;;5020927;28;20030;-93
2023/11/25 10:28:45;;;;;;;17.50;4.43;;;7.10;99.90;;;;;;5057407;28;20041;-94
2023/11/25 10:31:14;;;;;;;13.52;5.57;;;7.10;99.90;;;;;;5042591;28;20025;-92
2023/11/25 10:33:42;;;;;;;17.00;4.57;;;7.10;99.90;;;;;;5038317;28;20027;-92
2023/11/25 10:36:12;;;;;;;12.57;2.45;;;8.10;99.90;;;;;;5020256;28;20056;-92
2023/11/25 10:38:46;;;;;;;15.93;2.63;;;8.10;99.90;;;;;;5018785;28;20026;-94
2023/11/25 10:41:33;;;;;;;14.18;2.70;;;7.00;99.90;;;;;;5018994;28;20101;-92
2023/11/25 10:43:58;;;;;;;11.82;2.63;;;8.10;99.90;;;;;;5022879;28;20037;-93
2023/11/25 10:46:42;;;;;;;24.77;3.58;;;8.10;99.90;;;;;;5042428;28;20101;-94
2023/11/25 10:49:19;;;;;;;16.73;2.63;;;6.70;99.90;;;;;;5042533;28;20048;-94
2023/11/25 10:51:53;;;;;;;16.77;3.05;;;8.20;99.90;;;;;;5040200;28;20027;-93
2023/11/25 10:54:35;;;;;;;13.80;2.40;;;8.30;99.90;;;;;;5037727;28;20034;-93
2023/11/25 10:57:05;;;;;;;13.95;2.97;;;8.00;99.90;;;;;;5038079;28;20547;-93
2023/11/25 10:59:34;;;;;;;16.77;2.70;;;7.50;99.90;;;;;;5037744;28;20034;-94
2023/11/25 11:02:16;;;;;;;16.23;2.53;;;8.60;99.90;;;;;;5038470;28;20018;-94
2023/11/25 11:04:48;;;;;;;9.00;2.38;;;8.70;99.90;;;;;;5037896;28;20124;-93
2023/11/25 11:07:32;;;;;;;21.90;3.55;;;8.40;99.90;;;;;;5037937;28;20017;-93
2023/11/25 11:10:05;;;;;;;12.45;2.70;;;7.80;99.90;;;;;;5036618;28;20037;-92
2023/11/25 11:12:39;;;;;;;10.90;2.90;;;7.80;99.90;;;;;;5034228;28;20028;-93
2023/11/25 11:15:07;;;;;;;11.93;2.50;;;7.80;99.90;;;;;;5038463;28;20053;-94
2023/11/25 11:17:56;;;;;;;;;;;;;;;;;;;;;
2023/11/25 11:20:30;;;;;;;;;;;7.60;99.90;;;;;;5036748;28;20054;-91
2023/11/25 11:23:01;;;;;;;6.90;1.20;;;7.50;99.90;;;;;;5028886;28;19972;-93
2023/11/25 11:25:47;;;;;;;8.50;1.60;;;7.50;99.90;;;;;;5022198;28;20034;-94
2023/11/25 11:28:16;;;;;;;9.02;3.05;;;8.20;99.90;;;;;;5019170;28;20034;-93
2023/11/25 11:31:11;;;;;;;11.43;2.25;;;8.20;99.90;;;;;;5018477;28;20037;-91
2023/11/25 11:33:37;;;;;;;11.20;2.47;;;7.40;99.90;;;;;;5045635;28;20112;-91
2023/11/25 11:36:06;;;;;;;8.35;1.52;;;8.10;99.90;;;;;;5023734;28;20122;-92
2023/11/25 11:38:36;;;;;;;8.52;2.25;;;7.40;99.90;;;;;;5042993;28;20044;-94
2023/11/25 11:41:08;;;;;;;6.88;1.33;;;8.20;99.90;;;;;;5039098;28;20029;-95
2023/11/25 11:43:34;;;;;;;10.23;2.30;;;8.40;99.90;;;;;;5038169;28;20041;-93
2023/11/25 11:46:04;;;;;;;3.30;1.30;;;8.80;99.90;;;;;;5043640;28;20013;-93
2023/11/25 11:48:33;;;;;;;8.45;1.95;;;7.00;99.90;;;;;;5057822;28;20017;-91
2023/11/25 11:50:59;;;;;;;8.90;2.63;;;8.30;99.90;;;;;;5058288;28;20037;-92
2023/11/25 11:53:28;;;;;;;11.60;2.05;;;7.10;99.90;;;;;;5057622;28;20021;-92
2023/11/25 11:55:57;;;;;;;15.20;2.70;;;8.90;99.90;;;;;;5055096;28;20044;-92
2023/11/25 11:58:28;;;;;;;15.00;2.85;;;9.10;99.90;;;;;;5029748;28;20105;-93
2023/11/25 12:01:00;;;;;;;12.07;2.70;;;8.40;99.90;;;;;;5019500;28;20056;-94
2023/11/25 12:03:26;;;;;;;11.45;2.58;;;7.70;99.90;;;;;;5017317;28;20049;-92
2023/11/25 12:05:53;;;;;;;18.10;2.75;;;7.90;99.90;;;;;;5026131;28;20109;-92
2023/11/25 12:08:19;;;;;;;15.70;2.63;;;7.80;99.90;;;;;;5040265;28;20053;-93
2023/11/25 12:10:45;;;;;;;21.98;3.78;;;8.70;99.90;;;;;;5036813;28;20041;-94
2023/11/25 12:13:11;;;;;;;15.20;2.90;;;8.70;99.90;;;;;;5043442;28;20022;-93
2023/11/25 12:15:38;;;;;;;13.57;2.30;;;8.10;99.90;;;;;;5044795;28;20037;-94
2023/11/25 12:18:05;;;;;;;15.07;2.15;;;8.40;99.90;;;;;;5034065;28;20030;-92
2023/11/25 12:20:31;;;;;;;23.60;2.90;;;7.80;99.90;;;;;;5036810;28;20037;-92
2023/11/25 12:23:10;;;;;;;9.02;2.30;;;7.80;99.90;;;;;;5037497;28;20497;-94
2023/11/25 12:25:37;;;;;;;21.60;3.55;;;7.90;99.90;;;;;;5036383;28;20025;-94
2023/11/25 12:28:10;;;;;;;14.18;2.47;;;8.40;99.90;;;;;;5035554;28;20086;-93
2023/11/25 12:30:38;;;;;;;18.65;3.40;;;9.00;99.90;;;;;;5035910;28;20061;-93
2023/11/25 12:33:07;;;;;;;15.02;2.95;;;8.60;99.90;;;;;;5036306;28;20029;-95
2023/11/25 12:35:38;;;;;;;25.42;3.88;;;8.90;99.90;;;;;;5035958;28;20026;-94
2023/11/25 12:38:05;;;;;;;16.20;2.63;;;8.90;99.90;;;;;;5037346;28;20080;-92
2023/11/25 12:40:32;;;;;;;20.92;2.88;;;8.00;99.90;;;;;;5033322;28;20061;-93
2023/11/25 12:43:13;;;;;;;16.05;3.47;;;9.00;99.90;;;;;;5018799;28;20025;-92
2023/11/25 12:45:45;;;;;;;10.23;2.47;;;8.40;99.90;;;;;;5017628;28;20562;-92
2023/11/25 12:48:19;;;;;;;17.30;2.30;;;7.30;99.90;;;;;;5031141;28;20021;-92
2023/11/25 12:51:23;;;;;;;10.40;2.35;;;8.10;99.90;;;;;;5034670;28;20389;-92
2023/11/25 12:54:15;;;;;;;7.85;1.58;;;9.10;99.90;;;;;;4974894;28;20037;-92
2023/11/25 12:56:42;;;;;;;6.20;2.05;;;8.80;99.90;;;;;;4970684;28;20055;-92
2023/11/25 12:59:08;;;;;;;10.48;1.90;;;8.70;99.90;;;;;;5014003;28;20041;-94
2023/11/25 13:01:34;;;;;;;17.38;4.03;;;8.90;99.90;;;;;;5035301;28;20032;-91